Airfield :
LOGIN :

Register | Disclaimer

   EN    FR    IT 

 










Legend :    VFR   Marginal VFR   IFR   Intensive IFR   Very Intensive IFR
Visi :
Ceiling :
>= 8 km
>= 3000ft
5 to 8 km
1000 to 3000 ft
1500m to 5 km
500 to 1000 ft
800 to 1500m
200 to 500 ft
< 800m
< 200 ft
Symbols :   Thunderstorms  Fog  Heavy snow  Heavy precipitations  Wind > 20 kt
SIGMETs :     Misc.  Thunderstorms  Icing  Turbulence  Mountain Waves  Volcanic Ashes







- Airport Elevation : 461 ft
- IATA code : WIE


ETOU - Wiesbaden Army

CURRENT METAR :
  • 111856Z AUTO 28006KT 9999 BKN070 03/M02 A3022 RMK AO2 SLP242 T00301021 $

EXPIRED METARs :
  • 111756Z AUTO 31007KT 9999 FEW070 04/M02 A3021 RMK AO2 SLP238 T00351025 10065 20035 50004 $
  • 111656Z AUTO 31009KT 9999 FEW039 OVC065 04/M02 A3020 RMK AO2 SLP235 T00421022 $

TAF TAF ETOU
Valid from the 11 at 12:00 until the 12 at 18:00 UTC


111225Z 1112/1218 30010KT 9999 OVC020 620208 QNH3021INS
BECMG 1201/1202 VRB06KT 9999 BKN020 620208 QNH3021INS
BECMG 1214/1215 VRB06KT 9999 SCT020 QNH3021INS TX05/1113Z TN02/1207Z
No reported NOTAMs for that airfield.



MET'MAP, your aeronautical weather chart ! - Copyright ORBIFLY December 2007 - Disclaimer

ORBIFLY MET'MAP TEAM :

Programming & Development : Alexandra Zaïnal
Concept & Development : Baudouin d'Aumeries
Co-Development & Prog : Marc-Olivier Méhu
Technical & hardware support : Manuel Goepfert

Contact : metmap@orbifly.com




SOURCES & CREDITS :

   NOAA